Sainte-Marie, Canada
Current Conditions -  °F | °C
As of 1:00 AM on Monday 26 Jan 2015 (Local Time) from CYQB Reporting Station
Clear Clear  
Wind Chill: -18°   Ceiling: Unl
Heat Index: -2°   Visibility: 20mi
Dew Point: -11°   Wind: 9mph
Humidity: 66%   Direction: 220°SW
Pressure: 30.06"   Gusts: NA
Location:  46.43°N, 71.02°W
Report Text: CYQB 260600Z 22008KT 20SM SKC M19/M24 A3006 RMK SLP188
Loading
Personal Weather Stations






























Interactive Weather Map New forecast layout! Learn more

10-Day Weather Forecast

Advertisements
Track Severe Weather on mobile